Time;durP1;ratioP1;P1;durP2;ratioP2;P2;SDS_P1;SDS_P2;PMS_P1;PMS_P2;Temp;Humidity;BMP_temperature;BMP_pressure;BME280_temperature;BME280_humidity;BME280_pressure;Samples;Min_cycle;Max_cycle;Signal;HPM_P1;HPM_P2
2023/01/11 00:01:20;;;;;;;4.57;1.30;;;6.40;99.90;;;4.81;100.00;100185.50;4996649;28;20030;-78
2023/01/11 00:03:46;;;;;;;3.40;1.10;;;6.50;99.90;;;4.85;100.00;100184.91;4996313;28;20035;-78
2023/01/11 00:06:12;;;;;;;4.38;1.10;;;6.50;99.90;;;4.86;100.00;100162.28;4994490;28;20038;-78
2023/01/11 00:08:38;;;;;;;3.63;1.63;;;6.50;99.90;;;4.80;100.00;100152.22;4994101;28;20399;-78
2023/01/11 00:11:11;;;;;;;5.03;1.30;;;6.50;99.90;;;4.84;100.00;100160.81;4995772;28;20121;-78
2023/01/11 00:13:37;;;;;;;4.75;1.48;;;6.50;99.90;;;4.87;100.00;100165.81;5000103;28;20042;-78
2023/01/11 00:16:07;;;;;;;4.65;1.23;;;6.50;99.90;;;4.88;100.00;100175.59;4996086;28;20113;-76
2023/01/11 00:18:34;;;;;;;3.92;1.33;;;6.50;99.90;;;4.88;100.00;100167.50;4995382;28;20034;-76
2023/01/11 00:21:07;;;;;;;6.13;1.50;;;6.50;99.90;;;4.88;100.00;100179.13;4995533;28;20052;-76
2023/01/11 00:23:37;;;;;;;4.07;1.45;;;6.50;99.90;;;4.90;100.00;100160.03;4995334;28;20080;-76
2023/01/11 00:26:05;;;;;;;5.78;1.30;;;6.60;99.90;;;4.91;100.00;100167.13;4993387;28;20034;-75
2023/01/11 00:28:31;;;;;;;5.55;1.30;;;6.60;99.90;;;4.92;100.00;100147.16;4996334;28;20034;-76
2023/01/11 00:30:57;;;;;;;3.80;1.30;;;6.60;99.90;;;4.97;100.00;100143.88;4997350;28;20049;-76
2023/01/11 00:33:23;;;;;;;2.78;1.13;;;6.60;99.90;;;4.98;100.00;100146.38;5007809;28;20030;-76
2023/01/11 00:35:51;;;;;;;4.13;1.10;;;6.70;99.90;;;4.99;100.00;100129.13;4999408;28;20037;-76
2023/01/11 00:47:55;;;;;;;3.17;1.00;;;6.60;99.90;;;5.04;100.00;100129.41;4992591;28;20054;-76
2023/01/11 00:49:20;;;;;;;4.28;1.17;;;6.70;99.90;;;5.11;100.00;100136.75;4994905;28;20080;-76
2023/01/11 00:51:45;;;;;;;5.13;1.25;;;6.70;99.90;;;5.04;100.00;100129.41;4995188;28;20454;-77
2023/01/11 00:54:11;;;;;;;3.67;1.27;;;6.80;99.90;;;5.16;100.00;100131.59;4995170;28;20059;-77
2023/01/11 00:56:37;;;;;;;2.17;1.50;;;6.80;99.90;;;5.16;100.00;100120.78;4993519;28;20126;-76
2023/01/11 00:59:03;;;;;;;4.78;1.10;;;6.80;99.90;;;5.15;100.00;100130.75;4994709;28;20449;-76
2023/01/11 01:01:30;;;;;;;2.95;1.13;;;6.80;99.90;;;5.17;100.00;100144.06;4995022;28;20409;-77
2023/01/11 01:03:56;;;;;;;3.83;1.00;;;6.80;99.90;;;5.19;100.00;100139.31;4994916;28;20061;-77
2023/01/11 01:06:22;;;;;;;1.95;0.90;;;6.80;99.90;;;5.23;100.00;100139.78;5009277;28;20320;-76
2023/01/11 01:08:48;;;;;;;3.03;0.90;;;6.80;99.90;;;5.16;100.00;100137.81;4999011;28;20053;-76
2023/01/11 01:11:14;;;;;;;4.40;0.90;;;6.80;99.90;;;5.14;100.00;100149.88;4994414;28;20512;-77
2023/01/11 01:16:23;;;;;;;4.13;1.10;;;6.80;99.90;;;5.08;100.00;100146.06;4999410;28;20041;-77
2023/01/11 01:18:51;;;;;;;3.15;0.80;;;6.70;99.90;;;5.11;100.00;100150.25;4994118;28;20046;-77
2023/01/11 01:21:16;;;;;;;4.75;1.00;;;6.70;99.90;;;5.10;100.00;100141.31;4994400;28;20403;-76
2023/01/11 01:23:42;;;;;;;4.63;1.02;;;6.70;99.90;;;5.14;100.00;100123.66;4994800;28;20062;-77
2023/01/11 01:26:08;;;;;;;2.08;1.00;;;6.80;99.90;;;5.13;100.00;100124.69;4994136;28;20038;-77
2023/01/11 01:28:33;;;;;;;3.88;1.08;;;6.80;99.90;;;5.02;100.00;100127.91;4992786;28;20045;-76
2023/01/11 01:30:59;;;;;;;3.53;1.20;;;6.80;99.90;;;5.09;100.00;100133.41;4994147;28;20478;-77
2023/01/11 01:33:25;;;;;;;2.22;0.90;;;6.80;99.90;;;5.10;100.00;100140.47;4994428;28;20050;-77
2023/01/11 01:35:50;;;;;;;4.35;1.15;;;6.80;99.90;;;5.07;100.00;100132.75;4976788;28;20088;-77
2023/01/11 01:38:17;;;;;;;2.65;0.93;;;6.70;99.90;;;5.10;100.00;100141.31;5008257;28;20492;-77
2023/01/11 01:40:46;;;;;;;2.90;0.90;;;6.80;99.90;;;5.10;100.00;100132.38;4994431;28;20072;-77
2023/01/11 01:43:15;;;;;;;2.38;0.90;;;6.70;99.90;;;5.11;100.00;100134.88;5000861;28;20049;-77
2023/01/11 01:45:42;;;;;;;3.20;1.10;;;6.80;99.90;;;5.12;100.00;100108.69;5006830;28;20034;-76
2023/01/11 01:48:20;;;;;;;7.28;0.95;;;6.80;99.90;;;5.12;100.00;100116.78;4994461;28;20350;-77
2023/01/11 01:50:58;;;;;;;6.07;1.23;;;6.80;99.90;;;5.06;100.00;100110.28;5014854;28;20450;-77
2023/01/11 01:53:42;;;;;;;2.85;0.80;;;6.80;99.90;;;5.01;100.00;100105.44;5009198;28;20035;-77
2023/01/11 01:56:19;;;;;;;6.13;1.25;;;6.70;99.90;;;4.99;100.00;100106.69;4993557;28;21091;-76
2023/01/11 01:58:55;;;;;;;2.95;1.10;;;6.70;99.90;;;4.98;100.00;100111.25;4994766;28;20069;-76
2023/01/11 02:04:17;;;;;;;3.28;1.50;;;6.60;99.90;;;4.93;100.00;100104.75;4993403;28;20113;-76
2023/01/11 02:06:44;;;;;;;2.70;1.00;;;6.60;99.90;;;4.97;100.00;100114.97;4993790;28;20042;-76
2023/01/11 02:09:28;;;;;;;2.78;1.10;;;6.60;99.90;;;5.00;100.00;100111.06;4993617;28;20490;-76
2023/01/11 02:11:57;;;;;;;6.00;1.20;;;6.60;99.90;;;5.01;100.00;100118.97;4993595;28;20080;-76
2023/01/11 02:14:24;;;;;;;4.70;1.52;;;6.70;99.90;;;5.02;100.00;100099.00;4993343;28;20045;-76
2023/01/11 02:16:50;;;;;;;3.92;1.38;;;6.60;99.90;;;5.03;100.00;100092.56;4991931;28;20037;-76
2023/01/11 02:19:53;;;;;;;3.78;1.30;;;6.70;99.90;;;4.99;100.00;100077.75;4994029;28;20458;-75
2023/01/11 02:22:54;;;;;;;2.90;1.17;;;6.70;99.90;;;5.10;100.00;100076.41;4994771;28;20037;-77
2023/01/11 02:26:12;;;;;;;5.00;1.20;;;6.80;99.90;;;5.15;100.00;100086.66;4992255;28;20136;-76
2023/01/11 02:28:58;;;;;;;4.30;1.10;;;6.80;99.90;;;5.14;100.00;100077.69;5007580;28;20046;-76
2023/01/11 02:31:53;;;;;;;1.88;0.88;;;6.80;99.90;;;5.15;100.00;100070.41;4992348;28;20042;-76
2023/01/11 02:34:29;;;;;;;5.28;1.40;;;6.80;99.90;;;5.18;100.00;100072.72;4993728;28;20045;-77
2023/01/11 02:37:16;;;;;;;3.83;1.45;;;6.80;99.90;;;5.20;100.00;100057.16;4992927;28;20153;-76
2023/01/11 02:40:21;;;;;;;6.05;1.30;;;6.80;99.90;;;5.25;100.00;100057.38;4993441;28;20387;-77
2023/01/11 02:46:14;;;;;;;2.78;1.00;;;6.90;99.90;;;5.23;100.00;100064.88;4993192;28;20053;-76
2023/01/11 02:48:49;;;;;;;;;;;6.90;99.90;;;5.26;100.00;100050.13;5001346;28;20044;-77
2023/01/11 02:51:47;;;;;;;2.47;0.90;;;6.90;99.90;;;5.23;100.00;100037.00;4995135;28;19972;-77
2023/01/11 02:54:18;;;;;;;5.63;1.10;;;6.90;99.90;;;5.25;100.00;100016.00;4996290;28;20038;-76
2023/01/11 02:56:48;;;;;;;2.25;1.02;;;6.90;99.90;;;5.30;100.00;100030.59;4996875;28;20069;-76
2023/01/11 02:59:22;;;;;;;2.28;0.70;;;7.00;99.90;;;5.34;100.00;100020.22;4995881;28;20042;-77
2023/01/11 03:01:52;;;;;;;2.53;1.13;;;6.90;99.90;;;5.33;100.00;100008.56;5007498;28;20038;-77
2023/01/11 03:04:36;;;;;;;3.72;1.20;;;7.00;99.90;;;5.38;100.00;100007.13;5010365;28;20038;-76
2023/01/11 03:07:38;;;;;;;3.28;1.10;;;7.00;99.90;;;5.42;100.00;100008.41;4995544;28;20038;-77
2023/01/11 03:10:55;;;;;;;4.15;1.10;;;7.00;99.90;;;5.46;100.00;100015.94;4996222;28;20050;-77
2023/01/11 03:14:02;;;;;;;2.40;1.10;;;7.10;99.90;;;5.55;100.00;100000.34;4996716;28;20156;-77
2023/01/11 03:16:55;;;;;;;2.55;1.05;;;7.10;99.90;;;5.58;100.00;100001.84;4996923;28;20489;-77
2023/01/11 03:19:51;;;;;;;2.65;0.95;;;7.20;99.90;;;5.62;100.00;100000.41;4996676;28;20516;-78
2023/01/11 03:22:42;;;;;;;2.38;1.27;;;7.20;99.90;;;5.63;100.00;100001.25;4996500;28;20034;-78
2023/01/11 03:25:18;;;;;;;1.65;0.90;;;7.20;99.90;;;5.66;100.00;99980.00;4996776;28;20053;-78
2023/01/11 03:28:01;;;;;;;1.52;0.85;;;7.30;99.90;;;5.65;100.00;99983.75;5019756;28;20430;-77
2023/01/11 03:31:04;;;;;;;3.08;1.05;;;7.30;99.90;;;5.68;100.00;99972.53;5004923;28;20039;-77
2023/01/11 03:34:01;;;;;;;2.05;0.95;;;7.30;99.90;;;5.76;100.00;99968.81;4996993;28;20038;-76
2023/01/11 03:36:34;;;;;;;2.72;1.30;;;7.40;99.90;;;5.82;100.00;99986.94;4997711;28;20398;-75
2023/01/11 03:39:18;;;;;;;5.00;1.23;;;7.40;99.90;;;5.87;100.00;99978.22;4996398;28;20046;-76
2023/01/11 03:41:47;;;;;;;1.55;0.95;;;7.40;99.90;;;5.95;100.00;99978.03;4996098;28;20035;-76
2023/01/11 03:44:17;;;;;;;3.88;1.10;;;7.50;99.90;;;6.03;100.00;99966.25;4994651;28;20512;-76
2023/01/11 03:46:50;;;;;;;3.35;1.23;;;7.60;99.90;;;6.05;100.00;99947.91;4995986;28;20043;-76
2023/01/11 03:49:26;;;;;;;1.98;1.17;;;7.60;99.90;;;6.12;100.00;99953.34;5008618;28;20089;-76
2023/01/11 03:51:55;;;;;;;2.38;1.10;;;7.70;99.90;;;6.16;100.00;99947.34;4996472;28;20034;-76
2023/01/11 03:54:26;;;;;;;3.55;1.15;;;7.80;99.90;;;6.27;100.00;99940.47;5010965;28;20045;-76
2023/01/11 03:57:03;;;;;;;2.17;1.00;;;7.80;99.90;;;6.33;100.00;99925.25;5010069;28;20437;-77
2023/01/11 03:59:29;;;;;;;2.97;1.08;;;7.90;99.90;;;6.39;100.00;99927.16;4995268;28;20547;-76
2023/01/11 04:01:56;;;;;;;4.90;1.60;;;8.00;99.90;;;6.41;100.00;99916.09;5015719;28;20028;-76
2023/01/11 04:04:22;;;;;;;2.20;0.90;;;8.00;99.90;;;6.42;100.00;99924.03;5009650;28;20375;-76
2023/01/11 04:06:48;;;;;;;4.28;1.27;;;8.00;99.90;;;6.43;100.00;99920.28;5017442;28;20034;-75
2023/01/11 04:09:14;;;;;;;2.88;1.00;;;8.00;99.90;;;6.41;100.00;99916.94;4995636;28;20046;-76
2023/01/11 04:11:40;;;;;;;3.75;1.15;;;8.00;99.90;;;6.41;100.00;99908.81;4994024;28;20030;-76
2023/01/11 04:14:05;;;;;;;2.42;0.93;;;8.00;99.90;;;6.40;100.00;99920.69;4995856;28;20049;-76
2023/01/11 04:16:31;;;;;;;2.10;1.10;;;8.00;99.90;;;6.33;100.00;99895.44;4996511;28;20048;-75
2023/01/11 04:18:57;;;;;;;5.75;1.10;;;8.00;99.90;;;6.38;100.00;99895.69;4995843;28;20034;-76
2023/01/11 04:21:22;;;;;;;3.50;1.30;;;8.00;99.90;;;6.42;100.00;99904.22;5001822;28;20401;-76
2023/01/11 04:23:49;;;;;;;1.73;1.10;;;8.00;99.90;;;6.42;100.00;99923.19;5009619;28;20038;-75
2023/01/11 04:26:16;;;;;;;4.05;1.10;;;8.00;99.90;;;6.41;100.00;99922.38;4995333;28;20114;-76
2023/01/11 04:28:43;;;;;;;3.80;0.97;;;8.00;99.90;;;6.43;100.00;99923.00;4995353;28;20121;-76
2023/01/11 04:31:09;;;;;;;2.03;0.95;;;8.00;99.90;;;6.42;100.00;99913.19;4995307;28;20461;-76
2023/01/11 04:33:34;;;;;;;2.15;0.88;;;8.00;99.90;;;6.38;100.00;99916.50;4994378;28;20058;-77
2023/01/11 04:36:09;;;;;;;8.02;1.23;;;8.10;99.90;;;6.41;100.00;99916.09;4994631;28;20501;-76
2023/01/11 04:38:35;;;;;;;3.72;1.20;;;8.00;99.90;;;6.44;100.00;99921.09;5004792;28;20030;-77
2023/01/11 04:43:46;;;;;;;2.33;0.98;;;8.00;99.90;;;6.44;100.00;99911.09;4994651;28;20038;-76
2023/01/11 04:46:12;;;;;;;2.95;1.30;;;8.10;99.90;;;6.48;100.00;99917.78;4995701;28;20390;-76
2023/01/11 04:48:39;;;;;;;4.78;0.95;;;8.10;99.90;;;6.50;100.00;99919.44;4995590;28;20046;-75
2023/01/11 04:51:07;;;;;;;2.97;1.00;;;8.10;99.90;;;6.46;100.00;99909.03;4995050;28;20045;-76
2023/01/11 04:53:33;;;;;;;1.88;0.82;;;8.10;99.90;;;6.44;100.00;99915.69;4995061;28;20338;-75
2023/01/11 04:56:01;;;;;;;3.50;1.45;;;8.10;99.90;;;6.43;100.00;99930.28;5007216;28;20045;-75
2023/01/11 04:58:29;;;;;;;4.82;1.27;;;8.00;99.90;;;6.47;100.00;99920.69;4994446;28;20043;-75
2023/01/11 05:00:55;;;;;;;3.55;1.25;;;8.10;99.90;;;6.44;100.00;99921.94;5008923;28;20042;-75
2023/01/11 05:03:21;;;;;;;3.17;0.90;;;8.10;99.90;;;6.50;100.00;99925.72;4994714;28;20101;-75
2023/01/11 05:05:58;;;;;;;3.67;1.20;;;8.10;99.90;;;6.48;100.00;99928.63;4994465;28;20034;-76
2023/01/11 05:08:28;;;;;;;3.03;1.13;;;8.10;99.90;;;6.47;100.00;99926.94;4994745;28;20046;-76
2023/01/11 05:11:01;;;;;;;2.88;1.00;;;8.10;99.90;;;6.42;100.00;99928.59;4994610;28;20026;-76
2023/01/11 05:13:42;;;;;;;2.50;0.98;;;8.00;99.90;;;6.39;100.00;99918.19;5008963;28;20394;-76
2023/01/11 05:16:16;;;;;;;4.20;1.20;;;8.00;99.90;;;6.27;100.00;99935.06;4994043;28;20456;-76
2023/01/11 05:18:48;;;;;;;2.42;1.10;;;7.90;99.90;;;5.92;100.00;99902.66;4994483;28;20034;-75
2023/01/11 05:21:18;;;;;;;2.00;1.17;;;7.70;99.90;;;5.85;100.00;99927.00;4994800;28;20066;-76
2023/01/11 05:23:45;;;;;;;3.17;1.10;;;7.50;99.90;;;5.79;100.00;99913.44;4994540;28;20041;-75
2023/01/11 05:26:19;;;;;;;5.20;1.63;;;7.40;99.90;;;5.74;100.00;99928.44;4993341;28;20052;-76
2023/01/11 05:28:45;;;;;;;3.58;1.63;;;7.40;99.90;;;5.72;100.00;99935.94;4993574;28;20038;-76
2023/01/11 05:31:12;;;;;;;3.38;1.10;;;7.30;99.90;;;5.70;100.00;99931.75;4994168;28;20049;-76
2023/01/11 05:33:37;;;;;;;4.60;1.48;;;7.30;99.90;;;5.61;100.00;99912.97;4993585;28;20394;-74
2023/01/11 05:36:07;;;;;;;3.03;1.40;;;7.30;99.90;;;5.66;100.00;99930.47;4996822;28;20034;-76
2023/01/11 05:38:33;;;;;;;4.70;1.55;;;7.30;99.90;;;5.70;100.00;99934.44;4993782;28;20066;-77
2023/01/11 05:41:03;;;;;;;4.72;1.90;;;7.30;99.90;;;5.67;100.00;99930.25;4998373;28;20156;-76
2023/01/11 05:43:30;;;;;;;4.97;2.03;;;7.30;99.90;;;5.68;100.00;99928.41;4993642;28;20370;-76
2023/01/11 05:45:57;;;;;;;4.55;1.90;;;7.30;99.90;;;5.67;100.00;99932.97;5008081;28;20104;-75
2023/01/11 05:48:24;;;;;;;6.32;2.17;;;7.30;99.90;;;5.71;100.00;99923.44;4993030;28;20076;-75
2023/01/11 05:50:52;;;;;;;5.90;1.80;;;7.30;99.90;;;5.79;100.00;99927.00;4994183;28;20566;-75
2023/01/11 05:53:18;;;;;;;;;;;7.40;99.90;;;5.81;100.00;99938.44;4994207;28;20050;-75
2023/01/11 05:55:56;;;;;;;3.92;1.73;;;7.40;99.90;;;5.85;100.00;99939.69;5004580;28;20396;-74
2023/01/11 05:58:24;;;;;;;4.05;1.70;;;7.40;99.90;;;5.86;100.00;99936.81;4991722;28;20070;-74
2023/01/11 06:00:52;;;;;;;5.40;1.90;;;7.40;99.90;;;5.78;100.00;99919.91;5006616;28;20382;-74
2023/01/11 06:03:18;;;;;;;;;;;7.50;99.90;;;5.84;100.00;99922.63;5014408;28;20455;-74
2023/01/11 06:05:44;;;;;;;4.68;2.00;;;7.50;99.90;;;5.82;100.00;99935.50;4992575;28;19972;-75
2023/01/11 06:08:10;;;;;;;3.40;1.80;;;7.40;99.90;;;5.85;100.00;99937.84;4990701;28;20034;-74
2023/01/11 06:10:36;;;;;;;3.70;2.10;;;7.40;99.90;;;5.74;100.00;99904.06;4993895;28;20038;-75
2023/01/11 06:15:46;;;;;;;3.72;2.03;;;7.40;99.90;;;5.83;100.00;99929.06;4993389;28;20149;-74
2023/01/11 06:18:12;;;;;;;4.60;2.15;;;7.50;99.90;;;5.84;100.00;99935.31;4993742;28;20505;-75
2023/01/11 06:20:37;;;;;;;3.00;1.83;;;7.40;99.90;;;5.78;100.00;99938.84;4993850;28;20447;-76
2023/01/11 06:23:03;;;;;;;4.00;1.77;;;7.40;99.90;;;5.79;100.00;99930.50;4998923;28;20046;-75
2023/01/11 06:25:29;;;;;;;3.60;1.83;;;7.40;99.90;;;5.79;100.00;99922.38;4993817;28;20027;-75
2023/01/11 06:27:56;;;;;;;4.57;1.90;;;7.40;99.90;;;5.74;100.00;99928.44;4998671;28;20084;-75
2023/01/11 06:30:24;;;;;;;3.97;2.10;;;7.40;99.90;;;5.75;100.00;99923.84;5003662;28;20034;-76
2023/01/11 06:32:51;;;;;;;4.80;2.13;;;7.40;99.90;;;5.68;100.00;99921.09;5009633;28;20030;-76
2023/01/11 06:35:17;;;;;;;4.22;2.00;;;7.30;99.90;;;5.63;100.00;99898.41;4996573;28;20106;-75
2023/01/11 06:37:43;;;;;;;4.85;2.10;;;7.30;99.90;;;5.65;100.00;99904.44;4997355;28;20093;-75
2023/01/11 06:40:10;;;;;;;3.45;1.80;;;7.30;99.90;;;5.68;100.00;99907.56;4997927;28;20034;-75
2023/01/11 06:42:35;;;;;;;3.38;1.75;;;7.30;99.90;;;5.71;100.00;99914.47;5003004;28;20391;-75
2023/01/11 06:45:01;;;;;;;4.07;1.90;;;7.30;99.90;;;5.73;100.00;99909.69;4997851;28;20038;-74
2023/01/11 06:47:27;;;;;;;4.45;1.88;;;7.30;99.90;;;5.69;100.00;99903.81;4996963;28;20041;-74
2023/01/11 06:49:53;;;;;;;4.75;2.00;;;7.30;99.90;;;5.73;100.00;99907.81;4996756;28;20477;-74
2023/01/11 06:52:18;;;;;;;2.85;1.58;;;7.30;99.90;;;5.74;100.00;99916.75;5004326;28;20037;-73
2023/01/11 06:54:44;;;;;;;2.95;1.92;;;7.40;99.90;;;5.68;100.00;99912.16;5009636;28;20458;-74
2023/01/11 06:57:10;;;;;;;4.40;2.22;;;7.30;99.90;;;5.74;100.00;99917.59;5024831;28;20060;-74
2023/01/11 06:59:38;;;;;;;14.15;2.60;;;7.40;99.90;;;5.71;100.00;99906.34;4999119;28;20511;-74
2023/01/11 07:02:05;;;;;;;5.72;2.20;;;7.30;99.90;;;5.67;100.00;99902.38;5011781;28;20041;-74
2023/01/11 07:04:30;;;;;;;2.92;1.60;;;7.30;99.90;;;5.72;100.00;99905.31;4996961;28;20478;-73
2023/01/11 07:06:57;;;;;;;5.22;1.92;;;7.40;99.90;;;5.71;100.00;99911.75;4996416;28;20081;-74
2023/01/11 07:09:22;;;;;;;4.05;1.73;;;7.40;99.90;;;5.75;100.00;99915.72;5004035;28;20054;-73
2023/01/11 07:11:48;;;;;;;4.93;2.03;;;7.30;99.90;;;5.76;100.00;99917.38;5020900;28;20390;-74
2023/01/11 07:14:18;;;;;;;4.00;1.85;;;7.40;99.90;;;5.80;100.00;99921.34;4997367;28;20046;-74
2023/01/11 07:16:45;;;;;;;3.88;1.85;;;7.40;99.90;;;5.79;100.00;99919.69;4998456;28;20042;-74
2023/01/11 07:19:11;;;;;;;3.28;1.48;;;7.40;99.90;;;5.84;100.00;99922.63;4996326;28;20073;-72
2023/01/11 07:21:36;;;;;;;4.78;2.08;;;7.40;99.90;;;5.83;100.00;99928.25;4996380;28;20113;-73
2023/01/11 07:24:03;;;;;;;3.83;1.80;;;7.40;99.90;;;5.81;100.00;99923.03;4996709;28;20101;-73
2023/01/11 07:26:30;;;;;;;5.50;2.08;;;7.40;99.90;;;5.84;100.00;99922.63;5001205;28;20209;-73
2023/01/11 07:28:56;;;;;;;3.78;1.63;;;7.50;99.90;;;5.90;100.00;99921.81;5019983;28;20036;-73
2023/01/11 07:31:21;;;;;;;4.50;1.70;;;7.50;99.90;;;5.93;100.00;99925.16;5004540;28;20469;-74
2023/01/11 07:33:47;;;;;;;5.53;2.83;;;7.50;99.90;;;5.90;100.00;99927.22;4996240;28;20038;-75
2023/01/11 07:36:13;;;;;;;6.32;1.95;;;7.50;99.90;;;5.94;100.00;99916.00;4996580;28;20035;-74
2023/01/11 07:38:38;;;;;;;4.93;2.05;;;7.50;99.90;;;5.90;100.00;99916.41;5002454;28;20027;-74
2023/01/11 07:43:10;;;;;;;4.93;1.90;;;7.50;99.90;;;5.89;100.00;99919.31;5018777;28;20481;-74
2023/01/11 07:43:50;;;;;;;2.63;1.23;;;7.50;99.90;;;5.93;100.00;99906.19;5010227;28;20436;-74
2023/01/11 07:46:16;;;;;;;2.47;1.17;;;7.50;99.90;;;5.97;100.00;99912.88;4997489;28;20093;-73
2023/01/11 07:48:42;;;;;;;2.22;1.00;;;7.50;99.90;;;5.99;100.00;99908.94;4996375;28;20141;-73
2023/01/11 07:51:08;;;;;;;2.22;1.00;;;7.60;99.90;;;6.04;100.00;99916.44;5006316;28;20049;-73
2023/01/11 07:53:34;;;;;;;2.03;1.00;;;7.60;99.90;;;6.05;100.00;99923.53;5017016;28;20044;-73
2023/01/11 07:55:59;;;;;;;2.25;0.90;;;7.60;99.90;;;6.01;100.00;99916.88;5013407;28;20038;-74
2023/01/11 07:58:25;;;;;;;1.75;1.02;;;7.60;99.90;;;6.09;100.00;99926.69;5014266;28;20563;-73
2023/01/11 08:00:51;;;;;;;2.20;0.80;;;7.60;99.90;;;6.08;100.00;99916.88;5010308;28;20034;-72
2023/01/11 08:03:17;;;;;;;2.60;1.20;;;7.60;99.90;;;6.02;100.00;99913.13;5014392;28;20035;-73
2023/01/11 08:05:48;;;;;;;2.38;1.15;;;7.60;99.90;;;6.06;100.00;99913.56;5009210;28;20034;-73
2023/01/11 08:08:14;;;;;;;2.67;0.90;;;7.70;99.90;;;6.06;100.00;99914.38;4999529;28;20128;-73
2023/01/11 08:10:39;;;;;;;3.78;1.17;;;7.60;99.90;;;6.07;100.00;99915.22;5004330;28;20448;-74
2023/01/11 08:15:49;;;;;;;1.10;0.65;;;7.60;99.90;;;6.07;100.00;99913.34;4999796;28;20057;-73
2023/01/11 08:18:16;;;;;;;2.08;0.88;;;7.70;99.90;;;6.04;100.00;99900.22;5011053;28;20049;-73
2023/01/11 08:20:41;;;;;;;2.67;0.85;;;7.70;99.90;;;6.11;100.00;99906.50;5008336;28;20037;-73
2023/01/11 08:23:09;;;;;;;1.98;0.75;;;7.70;99.90;;;6.10;100.00;99907.53;5012236;28;20037;-73
2023/01/11 08:25:35;;;;;;;2.07;1.00;;;7.70;99.90;;;6.16;100.00;99893.16;5023573;28;20412;-74
2023/01/11 08:28:03;;;;;;;2.47;1.23;;;7.70;99.90;;;6.19;100.00;99898.16;4992581;28;20310;-74
2023/01/11 08:30:29;;;;;;;2.28;0.98;;;7.80;99.90;;;6.19;100.00;99892.75;5004733;28;20041;-74
2023/01/11 08:32:56;;;;;;;4.15;2.47;;;7.80;99.90;;;6.26;100.00;99908.16;5026862;28;20044;-74
2023/01/11 08:35:24;;;;;;;2.17;1.30;;;7.80;99.90;;;6.27;100.00;99913.38;5003334;28;20042;-74
2023/01/11 08:37:50;;;;;;;1.27;0.70;;;7.80;99.90;;;6.36;100.00;99919.41;5023095;28;20034;-73
2023/01/11 08:40:16;;;;;;;1.88;1.00;;;7.90;99.90;;;6.38;100.00;99916.50;5016025;28;20037;-74
2023/01/11 08:42:41;;;;;;;3.17;0.90;;;7.90;99.90;;;6.37;100.00;99913.00;5015331;28;20396;-74
2023/01/11 08:45:07;;;;;;;1.70;0.80;;;8.00;99.90;;;6.38;100.00;99906.53;5013996;28;20072;-73
2023/01/11 08:47:33;;;;;;;1.40;0.80;;;8.00;99.90;;;6.42;100.00;99915.91;5030382;28;20120;-74
2023/01/11 08:49:59;;;;;;;1.70;1.08;;;8.00;99.90;;;6.44;100.00;99911.09;5009670;28;20398;-73
2023/01/11 08:52:24;;;;;;;2.20;1.42;;;8.00;99.90;;;6.50;100.00;99916.72;5008401;28;20045;-74
2023/01/11 08:54:50;;;;;;;2.72;0.77;;;8.10;99.90;;;6.60;100.00;99922.56;5006713;28;20030;-73
2023/01/11 08:57:16;;;;;;;3.85;1.17;;;8.10;99.90;;;6.66;100.00;99927.16;5005553;28;20046;-73
2023/01/11 08:59:41;;;;;;;2.63;1.55;;;8.20;99.90;;;6.73;100.00;99938.00;5004566;28;20392;-73
2023/01/11 09:02:10;;;;;;;1.67;0.60;;;8.30;99.90;;;6.78;100.00;99934.66;5011200;28;20034;-73
2023/01/11 09:04:36;;;;;;;1.02;0.60;;;8.30;99.90;;;6.79;100.00;99928.19;5011610;28;20041;-73
2023/01/11 09:07:02;;;;;;;1.40;0.60;;;8.40;99.90;;;6.81;100.00;99939.66;5004994;28;20046;-73
2023/01/11 09:09:29;;;;;;;0.88;0.47;;;8.40;99.90;;;6.88;100.00;99933.19;5005104;28;20116;-73
2023/01/11 09:11:56;;;;;;;3.70;3.33;;;8.40;99.90;;;6.88;100.00;99937.78;5003740;28;20102;-72
2023/01/11 09:14:24;;;;;;;2.28;1.67;;;8.50;99.90;;;6.89;100.00;99945.72;4996910;28;20042;-73
2023/01/11 09:16:52;;;;;;;5.05;4.22;;;8.50;99.90;;;6.94;100.00;99955.94;5000790;28;20033;-75
2023/01/11 09:19:18;;;;;;;1.35;0.60;;;8.50;99.90;;;6.95;100.00;99945.91;5009923;28;20046;-73
2023/01/11 09:21:47;;;;;;;0.52;0.50;;;8.50;99.90;;;7.01;100.00;99959.47;5011514;28;20374;-74
2023/01/11 09:24:13;;;;;;;4.15;1.13;;;8.50;99.90;;;7.10;100.00;99967.38;5012676;28;20064;-75
2023/01/11 09:26:42;;;;;;;1.70;0.70;;;8.60;99.90;;;7.12;100.00;99957.16;5010662;28;20037;-73
2023/01/11 09:29:08;;;;;;;1.17;0.50;;;8.70;99.90;;;7.17;100.00;99962.81;5006748;28;20049;-73
2023/01/11 09:31:34;;;;;;;1.02;0.60;;;8.70;99.90;;;7.26;100.00;99952.53;5008656;28;20146;-73
2023/01/11 09:34:00;;;;;;;0.55;0.47;;;8.70;99.90;;;7.31;100.00;99958.19;5011925;28;20492;-75
2023/01/11 09:36:26;;;;;;;0.60;0.40;;;8.80;99.90;;;7.36;100.00;99969.22;5010672;28;20038;-73
2023/01/11 09:38:56;;;;;;;1.25;0.85;;;8.90;99.90;;;7.37;100.00;99968.19;5012927;28;20055;-74
2023/01/11 09:41:38;;;;;;;1.50;0.90;;;8.90;99.90;;;7.44;100.00;99976.31;5009142;28;20100;-74
2023/01/11 09:44:17;;;;;;;0.68;0.30;;;9.00;99.90;;;7.45;100.00;99964.41;5007561;28;20049;-75
2023/01/11 09:46:50;;;;;;;1.27;0.50;;;9.00;99.90;;;7.44;100.00;99970.88;5007697;28;20071;-73
2023/01/11 09:49:26;;;;;;;1.67;0.40;;;9.00;99.90;;;7.42;100.00;99959.38;5025667;28;20034;-73
2023/01/11 09:52:17;;;;;;;0.70;0.35;;;9.00;99.90;;;7.43;100.00;99963.78;5013275;28;20046;-73
2023/01/11 09:54:44;;;;;;;0.63;0.40;;;9.00;99.90;;;7.42;100.00;99953.97;5021318;28;20052;-74
2023/01/11 09:57:37;;;;;;;0.43;0.40;;;9.00;99.90;;;7.37;100.00;99948.34;5010496;28;20046;-73
2023/01/11 10:00:20;;;;;;;0.88;0.40;;;9.00;99.90;;;7.42;100.00;99956.66;5007099;28;20042;-73
2023/01/11 10:03:26;;;;;;;1.52;0.82;;;9.00;99.90;;;7.41;100.00;99953.13;5026166;28;20061;-74
2023/01/11 10:06:13;;;;;;;0.88;0.50;;;9.00;99.90;;;7.41;100.00;99947.72;5001699;28;20537;-73
2023/01/11 10:09:07;;;;;;;2.17;0.65;;;9.00;99.90;;;7.45;100.00;99953.56;5010716;28;20089;-73
2023/01/11 10:11:51;;;;;;;1.27;0.40;;;9.00;99.90;;;7.51;100.00;99968.13;5011599;28;20111;-73
2023/01/11 10:14:29;;;;;;;1.17;0.50;;;9.00;99.90;;;7.50;100.00;99967.31;5014334;28;20056;-73
2023/01/11 10:17:43;;;;;;;0.40;0.30;;;9.00;99.90;;;7.44;100.00;99966.28;4996270;28;20050;-73
2023/01/11 10:20:26;;;;;;;0.47;0.30;;;9.00;99.90;;;7.44;100.00;99979.03;4974053;28;20086;-73
2023/01/11 10:23:03;;;;;;;0.65;0.40;;;9.00;99.90;;;7.50;100.00;99989.03;4989842;28;20053;-74
2023/01/11 10:25:40;;;;;;;0.85;0.32;;;9.00;99.90;;;7.47;100.00;99968.56;4993692;28;20035;-73
2023/01/11 10:28:44;;;;;;;2.15;0.47;;;9.00;99.90;;;7.53;100.00;99971.47;4996349;28;20049;-73
2023/01/11 10:31:28;;;;;;;0.47;0.30;;;9.10;99.90;;;7.56;100.00;99958.31;4996691;28;20046;-74
2023/01/11 10:34:29;;;;;;;0.32;0.30;;;9.10;99.90;;;7.54;100.00;99946.00;4993332;28;20393;-73
2023/01/11 10:40:34;;;;;;;0.38;0.35;;;9.10;99.90;;;7.60;100.00;99951.41;5006390;28;20026;-74
2023/01/11 10:43:19;;;;;;;1.85;1.10;;;9.20;99.90;;;7.60;100.00;99947.88;4998621;28;20046;-74
2023/01/11 10:46:20;;;;;;;0.50;0.50;;;9.20;99.90;;;7.63;100.00;99947.44;5007843;28;20038;-76
2023/01/11 10:48:46;;;;;;;2.13;0.40;;;9.20;99.90;;;7.69;100.00;99949.28;5003760;28;20064;-75
2023/01/11 10:51:36;;;;;;;0.55;0.30;;;9.20;99.90;;;7.74;100.00;99948.66;5007470;28;20193;-74
2023/01/11 10:54:32;;;;;;;2.60;0.50;;;9.30;99.90;;;7.75;100.00;99932.13;5008316;28;20443;-74
2023/01/11 10:57:21;;;;;;;0.32;0.30;;;9.30;99.90;;;7.74;100.00;99940.50;4993124;28;20456;-74
2023/01/11 11:00:21;;;;;;;1.05;0.32;;;9.30;99.90;;;7.80;100.00;99963.22;5008399;28;20037;-76
2023/01/11 11:03:19;;;;;;;0.40;0.20;;;9.30;99.90;;;7.79;100.00;99951.56;5000607;28;20100;-74
2023/01/11 11:06:03;;;;;;;0.80;0.32;;;9.40;99.90;;;7.83;100.00;99955.50;5005839;28;20034;-75
2023/01/11 11:08:58;;;;;;;1.27;0.43;;;9.40;99.90;;;7.82;100.00;99955.69;5004717;28;20038;-74
2023/01/11 11:11:37;;;;;;;0.82;0.43;;;9.40;99.90;;;7.84;100.00;99962.59;5020234;28;20064;-74
2023/01/11 11:14:11;;;;;;;;;;;9.40;99.90;;;7.80;100.00;99958.66;5006680;28;20060;-74
2023/01/11 11:17:24;;;;;;;1.08;0.60;;;9.30;99.90;;;7.84;100.00;99967.22;5022945;28;19988;-74